Amalga, Utah
Current Conditions -  °F | °C
As of 6:51 PM on Monday 20 Oct 2014 (Local Time) from KLGU Reporting Station
Clear Clear  
Wind Chill: 64°   Ceiling: Unl
Heat Index: 64°   Visibility: 10mi
Dew Point: 39°   Wind: 6mph
Humidity: 40%   Direction: 110°ESE
Pressure: 29.92"   Gusts: NA
Location:  41.8466°N, 111.898°W
Report Text: KLGU 210051Z AUTO 11005KT 10SM CLR 18/04 A2992 RMK AO2 SLP114 T01780039 TSNO
Loading
Personal Weather Stations






























Interactive Weather Map
Tropical Storm Tracking
New forecast layout! Learn more

10-Day Weather Forecast

Advertisements
Track Severe Weather on mobile